Terminal Aerodrome Forecast
Issued by NWS Upton, NY

Home | Current Version | Previous Version | Text Only | Print | Product List | Glossary On
Versions: 1 2 3 4 5 6 7 8 9 10 11 12 13 14 15 16 17 18 19 20 21 22 23 24 25 26 27 28 29 30 31 32 33 34 35 36
000
FTUS41 KOKX 190842 AAB
TAFEWR
TAF AMD
KEWR 190842Z 1909/2012 23007KT P6SM BKN010 BKN015 OVC080
     FM191000 26007KT P6SM SCT010 SCT025 BKN050
     FM191200 31005KT P6SM SCT050 BKN250
     FM191500 28008KT P6SM SCT025 SCT050
     FM191800 25011G17KT P6SM SCT040
     FM200000 26008KT P6SM FEW250=

USA.gov is the U.S. government's official web portal to all federal, state and local government web resources and services.